Time;durP1;ratioP1;P1;durP2;ratioP2;P2;SDS_P1;SDS_P2;PMS_P1;PMS_P2;Temp;Humidity;BMP_temperature;BMP_pressure;BME280_temperature;BME280_humidity;BME280_pressure;Samples;Min_cycle;Max_cycle;Signal;HPM_P1;HPM_P2
2022/02/12 00:02:17;;;;;;;85.57;55.13;;;;;;;2.78;100.00;100889.66;4995194;28;20053;-69
2022/02/12 00:04:42;;;;;;;91.72;56.78;;;;;;;2.69;100.00;100866.91;5012885;28;20049;-68
2022/02/12 00:07:09;;;;;;;89.18;56.65;;;;;;;2.79;100.00;100898.03;5012749;28;20068;-69
2022/02/12 00:09:35;;;;;;;81.38;56.75;;;;;;;2.93;100.00;100891.59;4995326;28;20457;-69
2022/02/12 00:12:00;;;;;;;89.93;59.13;;;;;;;3.09;100.00;100896.91;4995167;28;20069;-69
2022/02/12 00:14:26;;;;;;;86.45;57.10;;;;;;;1.91;100.00;100883.75;4995187;28;20026;-67
2022/02/12 00:16:51;;;;;;;72.10;45.47;;;;;;;2.37;100.00;100868.84;4995046;28;20037;-70
2022/02/12 00:19:17;;;;;;;60.67;43.45;;;;;;;2.29;100.00;100897.94;5012684;28;20109;-69
2022/02/12 00:21:42;;;;;;;52.78;36.72;;;;;;;1.64;100.00;100881.47;5012414;28;20026;-69
2022/02/12 00:24:08;;;;;;;48.85;32.90;;;;;;;1.34;100.00;100895.84;4994192;28;20463;-69
2022/02/12 00:26:33;;;;;;;42.63;30.73;;;;;;;1.55;100.00;100913.84;5012765;28;20025;-69
2022/02/12 00:28:58;;;;;;;41.58;28.13;;;;;;;1.12;100.00;100843.53;5012748;28;20037;-68
2022/02/12 00:31:24;;;;;;;44.38;29.35;;;;;;;1.86;100.00;100912.03;4994973;28;20091;-69
2022/02/12 00:33:49;;;;;;;46.53;32.60;;;;;;;1.93;100.00;100912.22;5012339;28;20026;-69
2022/02/12 00:36:15;;;;;;;54.67;35.92;;;;;;;1.75;100.00;100855.00;4995107;28;20049;-69
2022/02/12 00:38:40;;;;;;;47.25;32.42;;;;;;;1.76;100.00;100871.72;5012354;28;20079;-68
2022/02/12 00:41:06;;;;;;;50.00;33.47;;;;;;;1.81;100.00;100863.47;4994734;28;20033;-69
2022/02/12 00:43:31;;;;;;;52.85;34.00;;;;;;;1.48;100.00;100871.09;4994580;28;20488;-69
2022/02/12 00:45:57;;;;;;;57.85;36.58;;;;;;;1.57;100.00;100841.22;4994380;28;20044;-67
2022/02/12 00:48:23;;;;;;;52.85;35.85;;;;;;;1.50;100.00;100862.81;5012230;28;20038;-69
2022/02/12 00:50:48;;;;;;;53.83;36.53;;;;;;;2.00;100.00;100891.47;4994261;28;20040;-69
2022/02/12 00:53:13;;;;;;;50.88;36.25;;;;;;;1.76;100.00;100873.41;5012059;28;20037;-68
2022/02/12 00:55:39;;;;;;;56.85;37.47;;;;;;;1.86;100.00;100904.53;5012284;28;20168;-69
2022/02/12 00:58:04;;;;;;;54.78;36.05;;;;;;;1.84;100.00;100846.00;4994304;28;20030;-69
2022/02/12 01:03:05;;;;;;;58.08;36.67;;;;;;;1.58;100.00;100868.00;4635385;22;10002003;-69
2022/02/12 01:05:30;;;;;;;52.17;35.60;;;;;;;2.32;100.00;100897.13;5011479;28;20034;-69
2022/02/12 01:07:56;;;;;;;66.72;41.08;;;;;;;2.10;100.00;100905.88;4990561;28;20496;-69
2022/02/12 01:10:21;;;;;;;59.47;39.80;;;;;;;2.42;100.00;100848.81;4975374;28;20496;-68
2022/02/12 01:12:47;;;;;;;69.32;47.05;;;;;;;2.45;100.00;100881.53;5011497;28;20038;-70
2022/02/12 01:15:12;;;;;;;69.93;45.33;;;;;;;1.51;100.00;100867.00;5011352;28;20068;-69
2022/02/12 01:17:39;;;;;;;62.28;44.40;;;;;;;1.53;100.00;100899.59;4993648;28;20026;-69
2022/02/12 01:20:05;;;;;;;78.97;50.67;;;;;;;1.98;100.00;100842.13;4999073;28;20045;-69
2022/02/12 01:22:30;;;;;;;86.70;53.42;;;;;;;1.59;100.00;100895.56;5010131;28;20108;-69
2022/02/12 01:24:56;;;;;;;89.05;53.75;;;;;;;1.90;100.00;100819.41;4993145;28;20125;-69
2022/02/12 01:27:22;;;;;;;76.93;48.63;;;;;;;2.45;100.00;100881.53;4993247;28;20045;-68
2022/02/12 01:29:47;;;;;;;57.33;39.78;;;;;;;2.37;100.00;100868.84;5010934;28;20053;-69
2022/02/12 01:32:13;;;;;;;69.95;45.95;;;;;;;1.39;100.00;100824.13;4992810;28;20025;-68
2022/02/12 01:34:39;;;;;;;67.07;45.33;;;;;;;2.00;100.00;100893.97;4989344;28;20507;-69
2022/02/12 01:37:06;;;;;;;58.75;41.38;;;;;;;2.48;100.00;100884.06;5004634;28;20038;-69
2022/02/12 01:39:32;;;;;;;62.35;42.28;;;;;;;1.78;100.00;100884.31;4990524;28;20033;-69
2022/02/12 01:41:58;;;;;;;60.85;42.28;;;;;;;1.63;100.00;100892.34;4991564;28;20034;-69
2022/02/12 01:44:33;;;;;;;64.60;41.65;;;;;;;1.98;100.00;100840.44;4997276;28;20124;-69
2022/02/12 01:46:59;;;;;;;63.28;41.53;;;;;;;2.69;100.00;100887.00;4993284;28;20022;-69
2022/02/12 01:49:26;;;;;;;67.25;43.85;;;;;;;1.85;100.00;100897.81;4974447;28;20137;-69
2022/02/12 01:51:53;;;;;;;62.47;41.95;;;;;;;2.33;100.00;100873.75;5009579;28;20041;-68
2022/02/12 01:54:18;;;;;;;60.63;40.85;;;;;;;2.41;100.00;100867.22;5010997;28;20100;-69
2022/02/12 01:56:45;;;;;;;62.78;43.42;;;;;;;1.96;100.00;100853.78;5009995;28;20038;-69
2022/02/12 01:59:11;;;;;;;59.60;41.85;;;;;;;2.56;100.00;100855.81;5011193;28;20030;-69
2022/02/12 02:01:36;;;;;;;62.80;42.95;;;;;;;2.63;100.00;100880.19;5010642;28;20037;-69
2022/02/12 02:04:02;;;;;;;64.25;43.78;;;;;;;2.46;100.00;100846.41;5011066;28;20044;-69
2022/02/12 02:06:27;;;;;;;64.93;45.05;;;;;;;2.62;100.00;100886.03;5010285;28;20041;-70
2022/02/12 02:08:53;;;;;;;70.60;45.08;;;;;;;2.51;100.00;100849.03;4993331;28;20061;-69
2022/02/12 02:11:19;;;;;;;64.65;43.30;;;;;;;2.41;100.00;100885.63;4993154;28;20068;-69
2022/02/12 02:13:45;;;;;;;65.25;44.15;;;;;;;1.58;100.00;100878.88;4993506;28;20436;-70
2022/02/12 02:16:11;;;;;;;59.58;42.00;;;;;;;1.85;100.00;100882.78;5011276;28;20054;-70
2022/02/12 02:18:37;;;;;;;60.47;41.03;;;;;;;1.88;100.00;100903.75;4994061;28;20033;-70
2022/02/12 02:21:05;;;;;;;59.30;40.38;;;;;;;2.15;100.00;100863.34;5010981;28;20025;-70
2022/02/12 02:23:31;;;;;;;62.03;41.28;;;;;;;1.70;100.00;100856.56;4993487;28;20463;-70
2022/02/12 02:25:57;;;;;;;60.20;40.17;;;;;;;1.50;100.00;100870.34;5001913;28;20031;-70
2022/02/12 02:28:22;;;;;;;64.93;41.15;;;;;;;1.23;100.00;100912.22;4986298;28;20985;-70
2022/02/12 02:30:47;;;;;;;59.67;40.35;;;;;;;1.65;100.00;100884.84;5010707;28;20065;-69
2022/02/12 02:33:13;;;;;;;64.43;42.67;;;;;;;1.81;100.00;100911.09;4993488;28;20061;-69
2022/02/12 02:35:38;;;;;;;76.28;47.13;;;;;;;1.34;100.00;100885.81;4992758;28;20038;-69
2022/02/12 02:38:12;;;;;;;73.18;47.03;;;;;;;1.59;100.00;100918.13;5010480;28;20030;-68
2022/02/12 02:40:37;;;;;;;82.78;47.15;;;;;;;1.73;100.00;100928.47;5010581;28;20034;-70
2022/02/12 02:43:04;;;;;;;83.80;47.53;;;;;;;1.05;100.00;100885.91;5010877;28;20419;-69
2022/02/12 02:45:29;;;;;;;83.10;42.40;;;;;;;1.23;100.00;100926.44;4993423;28;20034;-70
2022/02/12 02:47:58;;;;;;;72.60;41.30;;;;;;;1.33;100.00;100894.13;4994710;28;20470;-69
2022/02/12 02:56:00;;;;;;;71.97;38.95;;;;;;;1.00;100.00;100889.94;5014568;28;20069;-69
2022/02/12 02:58:38;;;;;;;68.93;38.70;;;;;;;1.45;100.00;100933.63;4996764;28;20030;-69
2022/02/12 03:01:10;;;;;;;71.55;39.75;;;;;;;1.54;100.00;100939.72;5014410;28;20030;-70
2022/02/12 03:03:37;;;;;;;77.95;43.90;;;;;;;1.58;100.00;100936.50;5013714;28;20049;-69
2022/02/12 03:06:02;;;;;;;79.72;45.75;;;;;;;1.12;100.00;100886.09;5014738;28;20030;-69
2022/02/12 03:08:28;;;;;;;76.40;42.58;;;;;;;1.39;100.00;100938.50;5014350;28;20107;-69
2022/02/12 03:10:56;;;;;;;66.45;38.42;;;;;;;1.53;100.00;100953.06;4996474;28;20037;-70
2022/02/12 03:13:21;;;;;;;72.35;38.25;;;;;;;1.38;100.00;100940.16;4996931;28;20037;-69
2022/02/12 03:15:47;;;;;;;81.05;38.45;;;;;;;1.63;100.00;100956.63;4996526;28;20380;-70
2022/02/12 03:18:13;;;;;;;96.40;40.03;;;;;;;0.82;100.00;100947.88;5013799;28;20034;-70
2022/02/12 03:20:38;;;;;;;98.85;44.00;;;;;;;0.82;100.00;100898.69;4996652;28;20128;-70
2022/02/12 03:23:04;;;;;;;98.90;42.10;;;;;;;1.11;100.00;100911.09;5014341;28;20026;-69
2022/02/12 03:25:30;;;;;;;141.77;45.10;;;;;;;1.33;100.00;100936.69;5013812;28;20033;-68
2022/02/12 03:27:57;;;;;;;83.78;41.00;;;;;;;1.50;100.00;100930.44;4996378;28;20037;-68
2022/02/12 03:30:27;;;;;;;116.55;42.72;;;;;;;1.66;100.00;100951.69;5013191;28;20128;-69
2022/02/12 03:32:52;;;;;;;95.15;40.63;;;;;;;1.57;100.00;100938.94;4996027;28;20500;-69
2022/02/12 03:35:18;;;;;;;127.88;40.97;;;;;;;1.23;100.00;100884.69;5013744;28;20073;-69
2022/02/12 03:37:43;;;;;;;88.40;39.28;;;;;;;1.46;100.00;100932.84;5013601;28;20038;-69
2022/02/12 03:40:12;;;;;;;134.18;40.67;;;;;;;1.60;100.00;100897.28;5012560;28;20026;-69
2022/02/12 03:42:38;;;;;;;138.63;40.50;;;;;;;1.08;100.00;100909.38;5013234;28;20127;-69
2022/02/12 03:45:04;;;;;;;112.35;39.17;;;;;;;1.64;100.00;100929.09;5012524;28;20081;-69
2022/02/12 03:47:29;;;;;;;162.15;41.42;;;;;;;1.10;100.00;100946.94;4996210;28;20062;-68
2022/02/12 03:49:55;;;;;;;242.02;40.28;;;;;;;0.72;100.00;100903.41;4993807;28;20507;-69
2022/02/12 03:52:21;;;;;;;131.23;36.92;;;;;;;0.80;100.00;100900.31;4975949;28;20054;-69
2022/02/12 03:54:46;;;;;;;159.18;38.38;;;;;;;1.10;100.00;100911.91;4993284;28;20034;-69
2022/02/12 03:57:11;;;;;;;133.73;36.90;;;;;;;1.50;100.00;100932.09;4995801;28;20030;-69
2022/02/12 03:59:37;;;;;;;224.98;37.80;;;;;;;1.04;100.00;100876.69;4994611;28;20037;-69
2022/02/12 04:02:03;;;;;;;170.95;35.17;;;;;;;1.37;100.00;100915.06;5012918;28;20475;-69
2022/02/12 04:04:29;;;;;;;174.88;33.88;;;;;;;1.52;100.00;100932.97;5013666;28;20053;-69
2022/02/12 04:06:55;;;;;;;84.55;31.33;;;;;;;1.76;100.00;100941.06;5013201;28;20476;-69
2022/02/12 04:09:20;;;;;;;246.77;31.25;;;;;;;1.27;100.00;100898.97;4995215;28;20483;-69
2022/02/12 04:11:46;;;;;;;242.18;32.95;;;;;;;1.48;100.00;100903.66;5013368;28;20030;-69
2022/02/12 04:14:11;;;;;;;320.83;35.13;;;;;;;1.35;100.00;100907.53;4995542;28;20473;-69
2022/02/12 04:16:37;;;;;;;227.75;30.65;;;;;;;1.17;100.00;100929.59;5012775;28;20393;-69
2022/02/12 04:19:02;;;;;;;174.73;31.85;;;;;;;1.37;100.00;100943.47;5012774;28;20033;-68
2022/02/12 04:21:28;;;;;;;241.38;32.55;;;;;;;0.72;100.00;100891.75;5011951;28;20116;-69
2022/02/12 04:23:53;;;;;;;197.85;32.95;;;;;;;0.42;100.00;100897.59;4995052;28;20025;-69
2022/02/12 04:26:19;;;;;;;185.52;33.03;;;;;;;0.81;100.00;100898.66;5012734;28;20030;-69
2022/02/12 04:28:44;;;;;;;204.25;36.90;;;;;;;1.22;100.00;100938.09;5012962;28;20034;-70
2022/02/12 04:31:09;;;;;;;275.70;37.05;;;;;;;1.05;100.00;100953.50;5012278;28;20034;-69
2022/02/12 04:33:35;;;;;;;153.10;32.08;;;;;;;1.26;100.00;100946.53;5030244;28;20079;-69
2022/02/12 04:36:01;;;;;;;127.97;30.25;;;;;;;1.08;100.00;100923.53;5032673;28;20081;-70
2022/02/12 04:38:27;;;;;;;187.60;32.13;;;;;;;0.89;100.00;100907.22;5032269;28;20017;-69
2022/02/12 04:40:52;;;;;;;130.63;30.08;;;;;;;1.00;100.00;100932.50;5031898;28;20557;-69
2022/02/12 04:43:18;;;;;;;230.30;34.58;;;;;;;0.68;100.00;100882.47;5014256;28;20594;-70
2022/02/12 04:45:43;;;;;;;140.38;34.30;;;;;;;0.83;100.00;100937.91;5031988;28;20030;-70
2022/02/12 04:48:08;;;;;;;145.80;32.35;;;;;;;0.99;100.00;100941.66;5032433;28;21203;-71
2022/02/12 04:50:34;;;;;;;116.35;27.98;;;;;;;0.84;100.00;100932.13;5014802;28;20037;-73
2022/02/12 04:52:59;;;;;;;127.20;31.23;;;;;;;1.02;100.00;100926.72;5032997;28;20032;-70
2022/02/12 04:55:26;;;;;;;116.95;29.95;;;;;;;1.07;100.00;100937.69;5031726;28;20029;-69
2022/02/12 04:57:51;;;;;;;92.57;30.27;;;;;;;0.82;100.00;100910.34;5032380;28;20033;-70
2022/02/12 05:00:17;;;;;;;110.70;31.17;;;;;;;1.03;100.00;100960.13;5031807;28;20036;-70
2022/02/12 05:02:45;;;;;;;83.63;28.85;;;;;;;0.96;100.00;100973.28;5031793;28;20050;-69
2022/02/12 05:05:10;;;;;;;89.45;31.25;;;;;;;1.22;100.00;100942.25;5032471;28;20032;-71
2022/02/12 05:07:35;;;;;;;84.03;31.65;;;;;;;1.17;100.00;100946.31;5014560;28;20067;-70
2022/02/12 05:10:01;;;;;;;78.25;27.95;;;;;;;0.96;100.00;100933.22;5014297;28;20030;-70
2022/02/12 05:12:26;;;;;;;69.72;28.63;;;;;;;0.88;100.00;100928.03;5032111;28;20526;-70
2022/02/12 05:14:52;;;;;;;75.25;29.20;;;;;;;2.42;100.00;100934.13;5031950;28;20034;-71
2022/02/12 05:17:18;;;;;;;73.88;29.33;;;;;;;1.29;100.00;100932.41;5014356;28;20029;-71
2022/02/12 05:19:44;;;;;;;75.60;28.60;;;;;;;1.08;100.00;100979.44;5014674;28;20483;-71
2022/02/12 05:22:09;;;;;;;77.82;31.83;;;;;;;1.12;100.00;100946.19;5032066;28;20034;-72
2022/02/12 05:24:35;;;;;;;89.60;37.15;;;;;;;1.03;100.00;100950.13;5032015;28;20068;-71
2022/02/12 05:27:01;;;;;;;115.50;41.05;;;;;;;0.98;100.00;100977.50;5032042;28;20063;-71
2022/02/12 05:29:26;;;;;;;77.70;33.70;;;;;;;1.00;100.00;100938.34;5031433;28;20108;-70
2022/02/12 05:31:52;;;;;;;87.65;38.75;;;;;;;0.80;100.00;100954.50;5031767;28;20106;-70
2022/02/12 05:34:19;;;;;;;88.28;41.78;;;;;;;0.88;100.00;100968.94;5014370;28;20059;-72
2022/02/12 05:36:45;;;;;;;96.57;36.63;;;;;;;0.73;100.00;100985.19;5019675;28;20571;-73
2022/02/12 05:39:12;;;;;;;86.80;32.58;;;;;;;0.53;100.00;100967.13;5012029;28;20026;-69
2022/02/12 05:41:38;;;;;;;78.05;31.50;;;;;;;0.98;100.00;100997.53;5011625;28;20511;-71
2022/02/12 05:44:05;;;;;;;66.18;29.85;;;;;;;1.09;100.00;100997.84;5011348;28;20618;-70
2022/02/12 05:46:31;;;;;;;109.05;27.58;;;;;;;0.86;100.00;101002.22;5011249;28;20036;-69
2022/02/12 05:48:56;;;;;;;52.53;26.42;;;;;;;0.84;100.00;100978.78;4993975;28;20118;-72
2022/02/12 05:51:22;;;;;;;82.20;36.20;;;;;;;0.88;100.00;100988.09;4993974;28;20033;-70
2022/02/12 05:53:49;;;;;;;75.18;28.00;;;;;;;1.00;100.00;101005.94;4993770;28;20033;-72
2022/02/12 05:56:15;;;;;;;62.03;25.35;;;;;;;4.17;100.00;101005.88;4994029;28;20042;-71
2022/02/12 05:58:40;;;;;;;73.50;33.90;;;;;;;1.41;100.00;101007.00;5008488;28;20041;-71
2022/02/12 06:01:06;;;;;;;96.90;28.10;;;;;;;1.08;100.00;100994.47;4984851;28;20112;-69
2022/02/12 06:03:31;;;;;;;78.88;26.25;;;;;;;0.85;100.00;100966.31;5009831;28;20538;-69
2022/02/12 06:05:57;;;;;;;117.28;24.50;;;;;;;0.83;100.00;100962.09;5009258;28;20042;-70
2022/02/12 06:08:22;;;;;;;109.30;29.35;;;;;;;1.16;100.00;101008.03;5010378;28;20037;-68
2022/02/12 06:10:50;;;;;;;59.05;23.42;;;;;;;1.12;100.00;101007.91;5010243;28;20030;-69
2022/02/12 06:13:16;;;;;;;109.65;31.52;;;;;;;1.30;100.00;101039.31;5010254;28;20036;-69
2022/02/12 06:15:42;;;;;;;85.28;27.10;;;;;;;0.98;100.00;101000.03;4993176;28;20038;-69
2022/02/12 06:18:07;;;;;;;53.30;25.58;;;;;;;0.87;100.00;101011.44;4993298;28;20504;-67
2022/02/12 06:20:33;;;;;;;54.78;25.90;;;;;;;1.10;100.00;101049.59;5010997;28;20030;-70
2022/02/12 06:23:00;;;;;;;55.90;28.63;;;;;;;1.13;100.00;100992.91;5012981;28;20045;-70
2022/02/12 06:25:26;;;;;;;62.45;28.92;;;;;;;1.54;100.00;101057.47;5014571;28;20030;-69
2022/02/12 06:27:52;;;;;;;80.55;30.10;;;;;;;1.40;100.00;101053.75;5014548;28;20061;-69
2022/02/12 06:30:17;;;;;;;73.45;28.13;;;;;;;1.12;100.00;101013.78;5014616;28;20061;-69
2022/02/12 06:32:43;;;;;;;92.40;31.88;;;;;;;1.35;100.00;100987.66;4997437;28;20419;-70
2022/02/12 06:35:09;;;;;;;73.38;27.50;;;;;;;1.48;100.00;101049.81;5015482;28;20022;-71
2022/02/12 06:37:34;;;;;;;81.93;29.08;;;;;;;1.70;100.00;101064.53;5015126;28;20062;-70
2022/02/12 06:40:00;;;;;;;116.05;31.33;;;;;;;1.70;100.00;101061.22;4997862;28;20493;-70
2022/02/12 06:42:26;;;;;;;93.03;29.15;;;;;;;1.57;100.00;101072.56;5014834;28;20033;-70
2022/02/12 06:44:51;;;;;;;126.07;32.45;;;;;;;1.58;100.00;101068.41;4997665;28;20100;-70
2022/02/12 06:47:17;;;;;;;203.60;37.30;;;;;;;1.83;100.00;101062.34;5015104;28;20033;-70
2022/02/12 06:49:43;;;;;;;93.50;31.75;;;;;;;1.73;100.00;101054.63;5015154;28;20441;-71
2022/02/12 06:52:08;;;;;;;149.70;40.40;;;;;;;1.88;100.00;101040.75;5015208;28;20410;-70
2022/02/12 06:54:34;;;;;;;167.77;42.35;;;;;;;1.68;100.00;101006.03;4997136;28;20456;-70
2022/02/12 06:57:00;;;;;;;92.70;27.33;;;;;;;2.32;100.00;101058.53;5014608;28;20506;-70
2022/02/12 06:59:25;;;;;;;91.07;29.00;;;;;;;2.53;100.00;101070.72;5014876;28;20053;-70
2022/02/12 07:01:51;;;;;;;98.88;26.42;;;;;;;2.28;100.00;101068.44;4996959;28;20036;-70
2022/02/12 07:04:16;;;;;;;87.05;24.42;;;;;;;2.12;100.00;101082.28;5014636;28;20455;-70
2022/02/12 07:06:42;;;;;;;78.93;28.73;;;;;;;2.16;100.00;101033.91;5014643;28;20489;-70
2022/02/12 07:09:10;;;;;;;90.22;25.42;;;;;;;1.92;100.00;101038.38;5015154;28;20065;-70
2022/02/12 07:11:37;;;;;;;67.13;28.85;;;;;;;2.36;100.00;101027.66;5014510;28;20056;-70
2022/02/12 07:14:03;;;;;;;92.90;32.85;;;;;;;2.41;100.00;101073.78;5014729;28;20029;-70
2022/02/12 07:16:28;;;;;;;69.55;29.17;;;;;;;2.72;100.00;101079.47;4996893;28;20439;-71
2022/02/12 07:18:54;;;;;;;92.30;32.65;;;;;;;2.64;100.00;101032.47;4997136;28;20026;-72
2022/02/12 07:21:19;;;;;;;88.30;28.08;;;;;;;2.52;100.00;101038.88;5014475;28;20040;-71
2022/02/12 07:23:45;;;;;;;68.57;28.30;;;;;;;2.56;100.00;101053.19;4997178;28;20120;-71
2022/02/12 07:26:11;;;;;;;87.22;31.55;;;;;;;2.76;100.00;101056.97;4997002;28;20025;-70
2022/02/12 07:28:40;;;;;;;72.20;27.80;;;;;;;2.91;100.00;101076.53;5014509;28;20648;-70
2022/02/12 07:31:08;;;;;;;72.68;31.73;;;;;;;3.06;100.00;101075.19;4997039;28;20038;-71
2022/02/12 07:33:34;;;;;;;66.97;28.65;;;;;;;2.89;100.00;101089.06;5013970;28;20049;-70
2022/02/12 07:36:00;;;;;;;65.80;28.35;;;;;;;2.67;100.00;101062.63;5014381;28;20030;-71
2022/02/12 07:38:25;;;;;;;64.07;27.83;;;;;;;2.67;100.00;101060.97;4996779;28;20141;-70
2022/02/12 07:40:50;;;;;;;79.22;31.10;;;;;;;3.13;100.00;101091.22;5014276;28;20052;-70
2022/02/12 07:43:16;;;;;;;101.25;38.25;;;;;;;3.38;100.00;101066.59;4996931;28;20026;-71
2022/02/12 07:45:41;;;;;;;66.80;31.45;;;;;;;3.20;100.00;101091.38;4996702;28;20095;-71
2022/02/12 07:48:07;;;;;;;79.40;32.53;;;;;;;3.00;100.00;101066.66;5013941;28;20037;-70
2022/02/12 07:50:32;;;;;;;77.28;34.70;;;;;;;3.68;100.00;101056.25;4996779;28;20037;-72
2022/02/12 07:52:58;;;;;;;75.53;34.20;;;;;;;3.66;100.00;101090.56;5014202;28;20029;-71
2022/02/12 07:55:23;;;;;;;77.40;35.88;;;;;;;3.85;100.00;101079.13;5013669;28;20034;-71
2022/02/12 07:57:48;;;;;;;95.43;41.03;;;;;;;3.95;100.00;101101.97;5014098;28;20021;-72
2022/02/12 08:00:16;;;;;;;94.78;43.88;;;;;;;3.77;100.00;101103.31;5014241;28;20034;-72
2022/02/12 08:02:42;;;;;;;85.57;43.60;;;;;;;3.82;100.00;101057.31;5014043;28;20042;-73
2022/02/12 08:05:09;;;;;;;78.63;41.47;;;;;;;4.27;100.00;101098.31;5014152;28;20050;-71
2022/02/12 08:07:37;;;;;;;75.07;39.00;;;;;;;4.39;100.00;101102.66;5013970;28;20022;-71
2022/02/12 08:11:22;;;;;;;77.78;40.97;;;;;;;4.38;100.00;101059.03;4996423;28;20503;-72
2022/02/12 08:12:52;;;;;;;67.32;39.30;;;;;;;4.59;100.00;101091.22;5014200;28;20125;-72
2022/02/12 08:15:18;;;;;;;61.40;36.00;;;;;;;5.20;100.00;101096.22;4996474;28;20065;-72
2022/02/12 08:17:43;;;;;;;55.85;34.35;;;;;;;5.46;100.00;101088.94;4996589;28;20535;-72
2022/02/12 08:20:09;;;;;;;51.83;32.95;;;;;;;5.12;100.00;101071.75;5013661;28;20026;-72
2022/02/12 08:22:35;;;;;;;54.38;35.13;;;;;;;5.77;100.00;101078.31;5013529;28;20044;-72
2022/02/12 08:25:01;;;;;;;52.92;32.38;;;;;;;6.38;100.00;101051.06;4996364;28;20030;-72
2022/02/12 08:27:30;;;;;;;47.97;29.55;;;;;;;6.52;100.00;101085.66;5013972;28;20069;-72
2022/02/12 08:29:55;;;;;;;46.30;28.92;;;;;;;7.28;100.00;101091.06;5013503;28;20125;-71
2022/02/12 08:32:23;;;;;;;49.60;27.15;;;;;;;7.18;100.00;101080.09;5013853;28;20072;-71
2022/02/12 08:34:49;;;;;;;44.60;29.10;;;;;;;7.27;100.00;101070.00;5013309;28;20067;-71
2022/02/12 08:37:15;;;;;;;82.57;45.95;;;;;;;7.42;100.00;101066.66;5013044;28;20061;-71
2022/02/12 08:39:40;;;;;;;43.78;28.48;;;;;;;8.01;100.00;101109.78;5013345;28;20038;-72
2022/02/12 08:42:06;;;;;;;41.95;28.50;;;;;;;7.72;100.00;101059.13;5013185;28;20128;-72
2022/02/12 08:44:37;;;;;;;40.65;27.85;;;;;;;8.18;100.00;101111.47;5012376;28;20061;-71
2022/02/12 08:47:03;;;;;;;41.78;29.15;;;;;;;7.92;100.00;101115.69;5012980;28;20120;-72
2022/02/12 08:49:29;;;;;;;49.83;32.85;;;;;;;7.60;100.00;101117.31;4995348;28;20038;-71
2022/02/12 08:51:55;;;;;;;41.95;28.98;;;;;;;8.32;100.00;101099.66;4995946;28;20025;-71
2022/02/12 08:54:21;;;;;;;35.35;23.65;;;;;;;9.39;100.00;101134.88;4995645;28;20480;-70
2022/02/12 08:56:46;;;;;;;42.95;27.30;;;;;;;9.09;100.00;101165.44;4995562;28;20034;-74
2022/02/12 08:59:13;;;;;;;51.10;33.78;;;;;;;9.58;100.00;101117.88;5013142;28;20483;-73
2022/02/12 09:01:40;;;;;;;48.70;33.17;;;;;;;9.89;100.00;101154.94;5012680;28;20088;-72
2022/02/12 09:04:07;;;;;;;65.05;43.72;;;;;;;10.32;100.00;101108.03;5012854;28;20065;-72
2022/02/12 09:06:32;;;;;;;48.50;32.80;;;;;;;10.64;100.00;101117.91;4995322;28;20041;-72
2022/02/12 09:08:58;;;;;;;47.17;29.00;;;;;;;10.96;100.00;101196.44;4995250;28;20034;-72
2022/02/12 09:11:28;;;;;;;60.47;34.38;;;;;;;11.17;100.00;101188.63;5012796;28;20036;-71
2022/02/12 09:13:53;;;;;;;32.58;20.40;;;;;;;11.58;100.00;101193.22;4995254;28;20030;-72
2022/02/12 09:16:22;;;;;;;31.05;19.42;;;;;;;11.65;100.00;101203.28;5012895;28;20041;-71
2022/02/12 09:18:48;;;;;;;30.80;19.88;;;;;;;12.00;100.00;101188.41;4991359;28;20057;-71
2022/02/12 09:21:14;;;;;;;49.22;26.33;;;;;;;12.33;100.00;101171.78;4992723;28;20038;-72
2022/02/12 09:23:39;;;;;;;30.23;14.30;;;;;;;13.19;100.00;101192.41;4975637;28;20130;-72
2022/02/12 09:26:05;;;;;;;12.35;6.85;;;;;;;13.09;100.00;101160.25;4991650;28;20415;-72
2022/02/12 09:28:30;;;;;;;13.38;7.70;;;;;;;13.20;100.00;101168.53;4992761;28;20097;-72
2022/02/12 09:30:56;;;;;;;16.23;7.55;;;;;;;13.51;100.00;101188.34;4992803;28;20094;-73
2022/02/12 09:33:21;;;;;;;19.23;8.90;;;;;;;13.56;100.00;101195.91;5004517;28;20492;-70
2022/02/12 09:35:53;;;;;;;22.13;11.35;;;;;;;13.42;100.00;101162.97;4994489;28;20030;-72
2022/02/12 09:38:19;;;;;;;58.35;24.67;;;;;;;13.54;100.00;101160.19;4995548;28;20064;-72
2022/02/12 09:40:45;;;;;;;59.38;26.95;;;;;;;13.63;100.00;101149.75;4975383;28;20045;-72
2022/02/12 09:43:11;;;;;;;20.20;10.38;;;;;;;13.64;100.00;101135.25;4992526;28;20034;-72
2022/02/12 09:45:50;;;;;;;18.58;9.57;;;;;;;13.87;100.00;101190.13;4974967;28;20030;-72
2022/02/12 09:48:17;;;;;;;24.65;11.63;;;;;;;14.04;100.00;101160.78;4992535;28;20041;-72
2022/02/12 09:50:44;;;;;;;14.15;7.40;;;;;;;13.98;100.00;101194.16;4992426;28;20034;-72
2022/02/12 09:53:09;;;;;;;13.00;6.78;;;;;;;14.07;100.00;101169.22;4992252;28;20037;-72
2022/02/12 09:55:35;;;;;;;53.05;21.23;;;;;;;14.14;100.00;101152.00;4974934;28;20038;-71
2022/02/12 09:58:02;;;;;;;23.60;12.18;;;;;;;14.31;100.00;101190.84;4992272;28;20096;-72
2022/02/12 10:00:28;;;;;;;62.67;23.42;;;;;;;14.23;100.00;101151.78;4992010;28;20035;-72
2022/02/12 10:02:54;;;;;;;8.38;6.00;;;;;;;14.40;100.00;101195.75;4992385;28;20054;-69
2022/02/12 10:05:23;;;;;;;23.98;11.13;;;;;;;14.29;100.00;101182.38;4991371;28;20082;-72
2022/02/12 10:08:09;;;;;;;17.38;11.18;;;;;;;14.26;100.00;101160.22;4975306;28;20030;-72
2022/02/12 10:10:36;;;;;;;17.58;11.15;;;;;;;14.59;100.00;101200.38;4975014;28;20030;-72
2022/02/12 10:13:08;;;;;;;11.68;8.32;;;;;;;14.79;99.94;101210.13;4992205;28;20041;-72
2022/02/12 10:15:34;;;;;;;8.15;5.20;;;;;;;14.48;98.32;101168.28;4991175;28;20453;-72
2022/02/12 10:18:01;;;;;;;6.28;3.88;;;;;;;14.67;95.36;101149.00;4992098;28;20038;-72
2022/02/12 10:20:29;;;;;;;9.30;5.18;;;;;;;15.42;92.62;101192.22;4974548;28;20389;-72
2022/02/12 10:23:16;;;;;;;8.32;5.25;;;;;;;15.42;91.11;101197.34;4990942;28;20031;-72
2022/02/12 10:25:43;;;;;;;6.85;4.43;;;;;;;14.93;88.50;101151.72;4984128;28;20074;-72
2022/02/12 10:28:10;;;;;;;8.82;4.65;;;;;;;15.38;89.44;101182.91;4992255;28;20381;-72
2022/02/12 10:30:36;;;;;;;8.85;3.88;;;;;;;14.93;86.61;101186.72;4992194;28;20030;-72
2022/02/12 10:33:05;;;;;;;6.93;3.67;;;;;;;14.98;87.44;101156.69;4992322;28;20037;-72
2022/02/12 10:35:32;;;;;;;7.25;4.35;;;;;;;15.26;83.89;101173.84;4991986;28;20053;-73
2022/02/12 10:38:04;;;;;;;5.95;3.70;;;;;;;15.06;81.77;101150.50;4991875;28;20107;-73
2022/02/12 10:40:31;;;;;;;8.20;3.97;;;;;;;15.13;79.76;101161.41;4974781;28;20026;-71
2022/02/12 10:42:57;;;;;;;6.18;3.75;;;;;;;15.47;76.44;101180.94;4974370;28;20046;-69
2022/02/12 10:45:25;;;;;;;8.70;4.20;;;;;;;15.25;76.96;101130.34;4974964;28;20058;-72
2022/02/12 10:47:51;;;;;;;4.28;2.70;;;;;;;15.61;74.37;101165.16;4991780;28;20030;-71
2022/02/12 10:50:18;;;;;;;7.07;3.67;;;;;;;15.62;73.22;101130.97;4974386;28;20043;-72
2022/02/12 10:52:50;;;;;;;4.95;3.10;;;;;;;15.74;71.21;101124.63;4991689;28;20035;-73
2022/02/12 10:55:29;;;;;;;5.97;3.75;;;;;;;16.11;70.86;101179.88;4974314;28;20071;-72
2022/02/12 10:57:55;;;;;;;10.40;7.28;;;;;;;16.05;70.34;101171.50;4991796;28;20031;-71
2022/02/12 11:00:24;;;;;;;15.65;9.35;;;;;;;15.94;71.35;101140.22;4990556;28;20054;-71
2022/02/12 11:02:51;;;;;;;6.15;4.70;;;;;;;15.85;70.00;101154.19;4991903;28;20050;-72
2022/02/12 11:05:19;;;;;;;6.47;4.50;;;;;;;16.57;66.79;101134.75;4991672;28;20038;-73
2022/02/12 11:07:45;;;;;;;9.05;4.50;;;;;;;15.98;65.92;101178.59;4991973;28;20038;-73
2022/02/12 11:10:11;;;;;;;7.72;3.90;;;;;;;15.90;66.24;101169.44;4995669;28;20027;-73
2022/02/12 11:12:37;;;;;;;6.97;4.78;;;;;;;15.82;68.33;101149.16;4977629;28;20038;-72
2022/02/12 11:15:02;;;;;;;5.35;3.75;;;;;;;16.20;65.51;101164.16;4995389;28;20043;-72